createdAt,value
2019-03-10T00:00:03.112Z,2.40
2019-03-10T00:02:30.009Z,2.30
2019-03-10T00:04:56.727Z,2.30
2019-03-10T00:07:23.454Z,2.20
2019-03-10T00:09:50.244Z,2.10
2019-03-10T00:12:16.968Z,2.10
2019-03-10T00:14:43.928Z,2.00
2019-03-10T00:17:10.625Z,2.00
2019-03-10T00:19:37.337Z,2.00
2019-03-10T00:22:05.257Z,1.90
2019-03-10T00:24:31.958Z,1.80
2019-03-10T00:26:58.686Z,1.90
2019-03-10T00:29:25.538Z,2.00
2019-03-10T00:31:52.262Z,1.90
2019-03-10T00:34:18.979Z,1.90
2019-03-10T00:36:45.800Z,1.90
2019-03-10T00:39:32.714Z,1.90
2019-03-10T00:42:27.461Z,2.00
2019-03-10T00:45:32.655Z,1.80
2019-03-10T00:48:24.800Z,1.80
2019-03-10T00:51:24.606Z,1.80
2019-03-10T00:53:51.468Z,1.80
2019-03-10T00:56:18.227Z,1.80
2019-03-10T00:58:44.966Z,1.90
2019-03-10T01:01:11.844Z,2.00
2019-03-10T01:03:38.589Z,2.00
2019-03-10T01:06:05.292Z,2.00
2019-03-10T01:08:32.416Z,1.80
2019-03-10T01:10:59.158Z,1.70
2019-03-10T01:13:26.009Z,1.70
2019-03-10T01:15:54.117Z,1.70
2019-03-10T01:18:22.739Z,1.60
2019-03-10T01:20:51.681Z,1.60
2019-03-10T01:23:18.569Z,1.80
2019-03-10T01:25:45.300Z,1.80
2019-03-10T01:28:12.017Z,1.70
2019-03-10T01:31:02.540Z,1.70
2019-03-10T01:34:06.589Z,1.70
2019-03-10T01:36:36.348Z,1.70
2019-03-10T01:39:04.283Z,1.60
2019-03-10T01:41:31.001Z,1.30
2019-03-10T01:43:57.798Z,1.30
2019-03-10T01:46:24.540Z,1.30
2019-03-10T01:48:51.296Z,1.30
2019-03-10T01:51:18.110Z,1.30
2019-03-10T01:53:44.816Z,1.30
2019-03-10T01:56:11.579Z,1.50
2019-03-10T01:58:38.346Z,1.40
2019-03-10T02:01:05.090Z,1.30
2019-03-10T02:03:32.016Z,1.30
2019-03-10T02:05:58.695Z,1.40
2019-03-10T02:08:25.457Z,1.50
2019-03-10T02:10:52.240Z,1.40
2019-03-10T02:13:18.999Z,1.30
2019-03-10T02:15:45.790Z,1.40
2019-03-10T02:18:12.561Z,1.50
2019-03-10T02:20:39.310Z,1.50
2019-03-10T02:23:06.162Z,1.40
2019-03-10T02:25:32.913Z,1.40
2019-03-10T02:27:59.623Z,1.40
2019-03-10T02:30:26.520Z,1.50
2019-03-10T02:32:53.281Z,1.50
2019-03-10T02:35:20.155Z,1.40
2019-03-10T02:37:46.882Z,1.40
2019-03-10T02:40:13.678Z,1.40
2019-03-10T02:42:40.497Z,1.30
2019-03-10T02:45:09.201Z,1.20
2019-03-10T02:47:35.942Z,1.10
2019-03-10T02:50:05.256Z,1.10
2019-03-10T02:52:31.981Z,1.10
2019-03-10T02:54:58.701Z,1.10
2019-03-10T02:57:25.469Z,1.10
2019-03-10T02:59:52.185Z,1.10
2019-03-10T03:02:18.966Z,1.00
2019-03-10T03:04:45.831Z,0.90
2019-03-10T03:07:12.569Z,0.90
2019-03-10T03:09:39.320Z,0.90
2019-03-10T03:12:06.095Z,0.90
2019-03-10T03:14:32.804Z,0.80
2019-03-10T03:16:59.849Z,0.80
2019-03-10T03:19:26.729Z,0.80
2019-03-10T03:21:53.443Z,0.80
2019-03-10T03:24:20.192Z,0.80
2019-03-10T03:26:46.986Z,0.80
2019-03-10T03:29:13.729Z,0.80
2019-03-10T03:31:40.531Z,0.70
2019-03-10T03:34:07.308Z,0.70
2019-03-10T03:36:35.165Z,0.70
2019-03-10T03:39:18.815Z,0.80
2019-03-10T03:41:45.557Z,0.80
2019-03-10T03:44:12.424Z,0.80
2019-03-10T03:46:39.131Z,0.80
2019-03-10T03:49:05.855Z,0.70
2019-03-10T03:51:32.642Z,0.80
2019-03-10T03:53:59.394Z,0.70
2019-03-10T03:56:26.178Z,0.60
2019-03-10T03:58:52.917Z,0.70
2019-03-10T04:01:19.698Z,0.70
2019-03-10T04:03:46.390Z,0.70
2019-03-10T04:06:13.271Z,0.60
2019-03-10T04:08:39.987Z,0.70
2019-03-10T04:11:06.721Z,0.70
2019-03-10T04:13:33.607Z,0.70
2019-03-10T04:16:00.332Z,0.70
2019-03-10T04:18:27.109Z,0.70
2019-03-10T04:20:53.899Z,0.70
2019-03-10T04:23:20.605Z,0.70
2019-03-10T04:25:47.347Z,0.70
2019-03-10T04:28:14.109Z,0.50
2019-03-10T04:30:40.843Z,0.50
2019-03-10T04:33:07.621Z,0.40
2019-03-10T04:35:34.469Z,0.40
2019-03-10T04:38:01.200Z,0.50
2019-03-10T04:40:28.092Z,0.40
2019-03-10T04:42:54.821Z,0.40
2019-03-10T04:45:21.531Z,0.30
2019-03-10T04:47:48.355Z,0.30
2019-03-10T04:50:16.417Z,0.10
2019-03-10T04:52:43.403Z,0.20
2019-03-10T04:55:10.205Z,0.10
2019-03-10T04:57:36.933Z,0.10
2019-03-10T05:00:06.358Z,0.10
2019-03-10T05:02:33.553Z,0.10
2019-03-10T05:05:00.474Z,0.10
2019-03-10T05:07:27.610Z,0.10
2019-03-10T05:09:54.337Z,0.10
2019-03-10T05:12:21.080Z,0.20
2019-03-10T05:14:47.987Z,0.10
2019-03-10T05:17:14.741Z,0.10
2019-03-10T05:19:41.614Z,0.20
2019-03-10T05:22:08.499Z,0.10
2019-03-10T05:24:35.285Z,0.00
2019-03-10T05:27:04.855Z,0.10
2019-03-10T05:29:31.710Z,-0.10
2019-03-10T05:31:58.440Z,-0.10
2019-03-10T05:34:25.177Z,0.00
2019-03-10T05:36:51.996Z,0.00
2019-03-10T05:39:18.718Z,0.00
2019-03-10T05:41:45.430Z,-0.10
2019-03-10T05:44:12.227Z,-0.10
2019-03-10T05:46:38.947Z,0.00
2019-03-10T05:49:05.802Z,0.10
2019-03-10T05:51:32.534Z,0.00
2019-03-10T05:53:59.273Z,0.00
2019-03-10T05:56:26.069Z,0.00
2019-03-10T05:58:52.791Z,0.10
2019-03-10T06:01:19.728Z,0.10
2019-03-10T06:03:46.514Z,0.10
2019-03-10T06:06:13.239Z,0.10
2019-03-10T06:08:40.105Z,0.10
2019-03-10T06:11:06.851Z,0.00
2019-03-10T06:13:33.579Z,0.10
2019-03-10T06:16:00.377Z,0.20
2019-03-10T06:18:27.123Z,0.20
2019-03-10T06:20:57.260Z,0.20
2019-03-10T06:23:24.122Z,0.10
2019-03-10T06:25:50.879Z,0.10
2019-03-10T06:28:17.624Z,0.10
2019-03-10T06:30:44.407Z,0.10
2019-03-10T06:33:11.159Z,0.10
2019-03-10T06:35:38.019Z,0.20
2019-03-10T06:38:04.801Z,0.10
2019-03-10T06:40:32.560Z,0.20
2019-03-10T06:42:59.573Z,0.20
2019-03-10T06:45:26.454Z,0.10
2019-03-10T06:47:53.181Z,0.10
2019-03-10T06:50:19.981Z,0.10
2019-03-10T06:52:46.700Z,0.30
2019-03-10T06:55:13.417Z,0.40
2019-03-10T06:57:40.209Z,0.50
2019-03-10T07:00:11.257Z,0.60
2019-03-10T07:02:39.161Z,0.70
2019-03-10T07:05:09.017Z,0.70
2019-03-10T07:07:35.779Z,0.90
2019-03-10T07:10:09.770Z,0.90
2019-03-10T07:12:36.492Z,1.10
2019-03-10T07:15:06.261Z,1.20
2019-03-10T07:17:33.157Z,1.30
2019-03-10T07:19:59.877Z,1.40
2019-03-10T07:22:26.695Z,1.40
2019-03-10T07:24:53.509Z,1.50
2019-03-10T07:27:20.266Z,1.50
2019-03-10T07:29:46.993Z,1.60
2019-03-10T07:32:13.794Z,1.70
2019-03-10T07:34:40.564Z,1.80
2019-03-10T07:37:07.267Z,1.90
2019-03-10T07:39:34.041Z,2.00
2019-03-10T07:42:00.776Z,2.10
2019-03-10T07:44:27.632Z,2.10
2019-03-10T07:46:54.340Z,2.20
2019-03-10T07:49:21.103Z,2.30
2019-03-10T07:51:48.013Z,2.40
2019-03-10T07:54:14.732Z,2.60
2019-03-10T07:56:41.462Z,2.70
2019-03-10T07:59:08.290Z,2.90
2019-03-10T08:01:35.055Z,3.10
2019-03-10T08:04:01.804Z,3.20
2019-03-10T08:06:28.595Z,3.40
2019-03-10T08:08:55.332Z,3.50
2019-03-10T08:11:22.085Z,3.50
2019-03-10T08:13:48.812Z,3.60
2019-03-10T08:16:15.629Z,3.60
2019-03-10T08:18:42.375Z,3.70
2019-03-10T08:21:09.190Z,3.80
2019-03-10T08:23:35.947Z,3.90
2019-03-10T08:26:02.866Z,4.00
2019-03-10T08:28:29.594Z,4.00
2019-03-10T08:30:56.306Z,4.10
2019-03-10T08:33:23.119Z,4.20
2019-03-10T08:35:49.851Z,4.20
2019-03-10T08:38:16.582Z,4.30
2019-03-10T08:40:43.408Z,4.40
2019-03-10T08:43:10.125Z,4.40
2019-03-10T08:45:36.870Z,4.50
2019-03-10T08:48:03.751Z,4.50
2019-03-10T08:50:30.513Z,4.70
2019-03-10T08:52:57.321Z,4.70
2019-03-10T08:55:24.177Z,4.70
2019-03-10T08:57:50.901Z,4.80
2019-03-10T09:00:17.719Z,4.90
2019-03-10T09:02:44.718Z,4.90
2019-03-10T09:05:11.565Z,4.90
2019-03-10T09:07:38.315Z,5.00
2019-03-10T09:10:08.708Z,5.00
2019-03-10T09:12:35.957Z,5.10
2019-03-10T09:15:05.185Z,5.10
2019-03-10T09:17:31.994Z,5.10
2019-03-10T09:19:58.735Z,5.10
2019-03-10T09:22:25.475Z,5.20
2019-03-10T09:24:52.394Z,5.10
2019-03-10T09:27:19.150Z,5.20
2019-03-10T09:29:45.906Z,5.30
2019-03-10T09:32:12.792Z,5.30
2019-03-10T09:34:39.580Z,5.30
2019-03-10T09:37:06.328Z,5.30
2019-03-10T09:39:33.100Z,5.40
2019-03-10T09:42:08.623Z,5.40
2019-03-10T09:44:35.574Z,5.40
2019-03-10T09:47:02.320Z,5.40
2019-03-10T09:49:29.211Z,5.50
2019-03-10T09:51:56.405Z,5.50
2019-03-10T09:54:23.487Z,5.60
2019-03-10T09:56:50.242Z,5.60
2019-03-10T09:59:17.004Z,5.60
2019-03-10T10:01:43.716Z,5.70
2019-03-10T10:04:10.618Z,5.70
2019-03-10T10:06:37.323Z,5.70
2019-03-10T10:09:05.946Z,5.80
2019-03-10T10:11:32.729Z,6.00
2019-03-10T10:13:59.471Z,6.20
2019-03-10T10:16:26.281Z,6.30
2019-03-10T10:18:53.039Z,6.30
2019-03-10T10:21:19.799Z,6.20
2019-03-10T10:23:46.658Z,6.20
2019-03-10T10:26:13.449Z,6.10
2019-03-10T10:28:40.326Z,6.10
2019-03-10T10:31:07.091Z,6.10
2019-03-10T10:33:33.836Z,6.20
2019-03-10T10:36:00.605Z,6.30
2019-03-10T10:38:27.404Z,6.30
2019-03-10T10:40:54.299Z,6.30
2019-03-10T10:43:21.031Z,6.40
2019-03-10T10:45:47.749Z,6.40
2019-03-10T10:48:14.568Z,6.50
2019-03-10T10:50:41.465Z,6.50
2019-03-10T10:53:08.277Z,6.60
2019-03-10T10:55:35.155Z,6.70
2019-03-10T10:58:02.013Z,6.70
2019-03-10T11:00:28.775Z,6.70
2019-03-10T11:02:55.502Z,6.70
2019-03-10T11:05:22.318Z,6.80
2019-03-10T11:07:49.068Z,6.80
2019-03-10T11:10:15.800Z,7.00
2019-03-10T11:12:42.596Z,7.20
2019-03-10T11:15:09.450Z,7.50
2019-03-10T11:17:36.189Z,7.80
2019-03-10T11:20:07.148Z,8.10
2019-03-10T11:22:33.914Z,8.10
2019-03-10T11:25:00.813Z,8.00
2019-03-10T11:27:27.695Z,8.20
2019-03-10T11:29:54.453Z,8.30
2019-03-10T11:32:21.172Z,8.60
2019-03-10T11:34:48.000Z,8.80
2019-03-10T11:37:14.734Z,8.80
2019-03-10T11:39:41.478Z,9.00
2019-03-10T11:42:08.310Z,9.40
2019-03-10T11:44:35.078Z,9.60
2019-03-10T11:47:01.818Z,9.40
2019-03-10T11:49:28.660Z,9.10
2019-03-10T11:51:55.400Z,8.70
2019-03-10T11:54:22.143Z,8.60
2019-03-10T11:56:49.025Z,8.40
2019-03-10T11:59:15.785Z,8.40
2019-03-10T12:01:42.517Z,8.30
2019-03-10T12:04:10.484Z,8.60
2019-03-10T12:06:37.362Z,8.90
2019-03-10T12:09:05.893Z,9.20
2019-03-10T12:11:32.647Z,9.40
2019-03-10T12:13:59.382Z,9.60
2019-03-10T12:16:26.171Z,9.50
2019-03-10T12:18:52.899Z,9.60
2019-03-10T12:21:19.653Z,9.80
2019-03-10T12:23:46.529Z,9.80
2019-03-10T12:26:13.434Z,9.90
2019-03-10T12:28:41.625Z,9.70
2019-03-10T12:31:08.661Z,9.70
2019-03-10T12:33:35.370Z,9.40
2019-03-10T12:36:02.127Z,9.20
2019-03-10T12:38:29.092Z,9.10
2019-03-10T12:40:55.882Z,9.10
2019-03-10T12:43:22.633Z,9.10
2019-03-10T12:45:49.446Z,9.30
2019-03-10T12:48:16.204Z,9.40
2019-03-10T12:50:42.933Z,9.40
2019-03-10T12:53:09.741Z,9.50
2019-03-10T12:55:36.522Z,9.80
2019-03-10T12:58:03.270Z,9.80
2019-03-10T13:00:30.177Z,10.30
2019-03-10T13:02:56.908Z,10.80
2019-03-10T13:05:23.832Z,10.90
2019-03-10T13:07:50.589Z,11.00
2019-03-10T13:10:17.317Z,11.10
2019-03-10T13:12:44.184Z,11.50
2019-03-10T13:15:11.744Z,11.60
2019-03-10T13:17:38.498Z,11.70
2019-03-10T13:20:09.309Z,11.90
2019-03-10T13:22:36.056Z,11.80
2019-03-10T13:25:09.068Z,11.70
2019-03-10T13:27:35.922Z,11.80
2019-03-10T13:30:12.277Z,11.70
2019-03-10T13:32:39.027Z,11.60
2019-03-10T13:35:05.870Z,11.50
2019-03-10T13:37:32.870Z,11.60
2019-03-10T13:39:59.594Z,11.30
2019-03-10T13:42:26.336Z,11.20
2019-03-10T13:44:53.077Z,11.30
2019-03-10T13:47:19.867Z,11.30
2019-03-10T13:49:46.776Z,11.00
2019-03-10T13:52:13.507Z,11.10
2019-03-10T13:54:40.262Z,10.80
2019-03-10T13:57:07.043Z,10.80
2019-03-10T13:59:33.800Z,10.60
2019-03-10T14:02:00.703Z,10.50
2019-03-10T14:04:27.456Z,10.20
2019-03-10T14:06:54.218Z,9.90
2019-03-10T14:09:21.101Z,9.70
2019-03-10T14:11:48.045Z,9.60
2019-03-10T14:14:14.793Z,9.50
2019-03-10T14:16:41.863Z,9.50
2019-03-10T14:19:08.763Z,9.50
2019-03-10T14:21:35.788Z,9.40
2019-03-10T14:24:03.051Z,9.20
2019-03-10T14:26:29.801Z,9.00
2019-03-10T14:28:56.866Z,9.00
2019-03-10T14:31:23.703Z,9.20
2019-03-10T14:33:50.857Z,9.30
2019-03-10T14:36:17.756Z,9.20
2019-03-10T14:38:44.650Z,9.20
2019-03-10T14:41:11.465Z,9.00
2019-03-10T14:43:38.380Z,8.90
2019-03-10T14:46:05.236Z,8.90
2019-03-10T14:48:32.245Z,8.70
2019-03-10T14:50:59.250Z,8.80
2019-03-10T14:53:26.043Z,8.90
2019-03-10T14:55:52.816Z,9.10
2019-03-10T14:58:19.724Z,9.30
2019-03-10T15:00:46.494Z,9.40
2019-03-10T15:03:13.248Z,9.40
2019-03-10T15:05:40.074Z,9.50
2019-03-10T15:08:06.916Z,9.60
2019-03-10T15:10:33.932Z,9.50
2019-03-10T15:13:00.812Z,9.30
2019-03-10T15:15:27.546Z,9.00
2019-03-10T15:17:54.317Z,8.90
2019-03-10T15:20:21.822Z,8.50
2019-03-10T15:22:48.734Z,8.40
2019-03-10T15:25:19.898Z,8.30
2019-03-10T15:27:46.769Z,8.20
2019-03-10T15:30:19.421Z,8.10
2019-03-10T15:32:46.279Z,7.90
2019-03-10T15:35:13.329Z,7.90
2019-03-10T15:37:40.081Z,7.80
2019-03-10T15:40:11.786Z,7.70
2019-03-10T15:42:38.536Z,7.60
2019-03-10T15:45:09.811Z,7.60
2019-03-10T15:47:36.687Z,7.60
2019-03-10T15:50:11.632Z,7.40
2019-03-10T15:52:38.374Z,7.30
2019-03-10T15:55:05.293Z,7.40
2019-03-10T15:57:32.034Z,7.30
2019-03-10T15:59:58.813Z,7.20
2019-03-10T16:02:25.650Z,7.30
2019-03-10T16:04:52.556Z,7.20
2019-03-10T16:07:20.438Z,7.30
2019-03-10T16:09:47.959Z,7.20
2019-03-10T16:12:15.064Z,7.10
2019-03-10T16:14:42.148Z,7.10
2019-03-10T16:17:09.230Z,7.10
2019-03-10T16:19:36.408Z,6.90
2019-03-10T16:22:03.823Z,6.90
2019-03-10T16:24:30.864Z,6.80
2019-03-10T16:26:58.007Z,6.80
2019-03-10T16:29:25.302Z,6.80
2019-03-10T16:31:52.553Z,6.80
2019-03-10T16:34:19.755Z,6.80
2019-03-10T16:36:47.022Z,6.70
2019-03-10T16:39:14.231Z,6.70
2019-03-10T16:41:41.280Z,6.70
2019-03-10T16:44:08.477Z,6.70
2019-03-10T16:46:35.660Z,6.70
2019-03-10T16:49:02.863Z,6.70
2019-03-10T16:51:29.882Z,6.70
2019-03-10T16:53:57.097Z,6.60
2019-03-10T16:56:24.316Z,6.60
2019-03-10T16:58:51.508Z,6.50
2019-03-10T17:01:18.703Z,6.50
2019-03-10T17:03:45.989Z,6.50
2019-03-10T17:06:13.179Z,6.40
2019-03-10T17:08:40.304Z,6.40
2019-03-10T17:11:07.564Z,6.30
2019-03-10T17:13:34.743Z,6.30
2019-03-10T17:16:01.902Z,6.20
2019-03-10T17:18:29.148Z,6.30
2019-03-10T17:20:56.284Z,6.30
2019-03-10T17:23:23.326Z,6.20
2019-03-10T17:25:50.414Z,6.20
2019-03-10T17:28:17.554Z,6.10
2019-03-10T17:30:44.823Z,6.10
2019-03-10T17:33:12.007Z,6.10
2019-03-10T17:35:39.441Z,6.00
2019-03-10T17:38:06.421Z,6.00
2019-03-10T17:40:33.578Z,6.00
2019-03-10T17:43:00.707Z,6.00
2019-03-10T17:45:27.977Z,5.90
2019-03-10T17:47:55.122Z,5.90
2019-03-10T17:50:22.571Z,5.90
2019-03-10T17:52:49.686Z,6.00
2019-03-10T17:55:22.017Z,6.00
2019-03-10T17:57:49.562Z,5.90
2019-03-10T18:00:18.182Z,5.80
2019-03-10T18:02:45.901Z,5.80
2019-03-10T18:05:12.863Z,5.70
2019-03-10T18:07:39.587Z,5.80
2019-03-10T18:10:16.463Z,5.80
2019-03-10T18:12:43.365Z,5.80
2019-03-10T18:15:13.246Z,5.80
2019-03-10T18:17:40.165Z,5.70
2019-03-10T18:20:17.524Z,5.70
2019-03-10T18:22:44.462Z,5.60
2019-03-10T18:25:12.159Z,5.60
2019-03-10T18:27:39.008Z,5.60
2019-03-10T18:30:14.266Z,5.60
2019-03-10T18:32:44.615Z,5.60
2019-03-10T18:35:11.455Z,5.50
2019-03-10T18:37:38.378Z,5.50
2019-03-10T18:40:23.085Z,5.50
2019-03-10T18:42:49.910Z,5.50
2019-03-10T18:45:18.487Z,5.50
2019-03-10T18:47:45.337Z,5.40
2019-03-10T18:50:15.540Z,5.50
2019-03-10T18:52:42.809Z,5.40
2019-03-10T18:55:12.809Z,5.40
2019-03-10T18:57:39.733Z,5.40
2019-03-10T19:00:26.894Z,5.40
2019-03-10T19:02:53.772Z,5.40
2019-03-10T19:05:20.951Z,5.40
2019-03-10T19:07:47.781Z,5.30
2019-03-10T19:10:14.535Z,5.40
2019-03-10T19:12:41.416Z,5.30
2019-03-10T19:15:15.616Z,5.40
2019-03-10T19:17:42.487Z,5.40
2019-03-10T19:20:12.441Z,5.40
2019-03-10T19:22:39.341Z,5.30
2019-03-10T19:25:12.179Z,5.40
2019-03-10T19:27:38.949Z,5.40
2019-03-10T19:30:23.524Z,5.40
2019-03-10T19:32:50.685Z,5.40
2019-03-10T19:35:17.671Z,5.30
2019-03-10T19:37:44.580Z,5.30
2019-03-10T19:40:19.669Z,5.30
2019-03-10T19:42:46.438Z,5.20
2019-03-10T19:45:21.111Z,5.20
2019-03-10T19:47:48.180Z,5.20
2019-03-10T19:50:26.874Z,5.30
2019-03-10T19:52:52.749Z,5.20
2019-03-10T19:55:21.744Z,5.20
2019-03-10T19:57:48.539Z,5.10
2019-03-10T20:00:20.693Z,5.10
2019-03-10T20:02:47.549Z,5.00
2019-03-10T20:05:14.546Z,5.00
2019-03-10T20:07:42.037Z,4.80
2019-03-10T20:10:16.831Z,4.70
2019-03-10T20:12:43.520Z,4.70
2019-03-10T20:15:14.247Z,4.60
2019-03-10T20:17:41.031Z,4.50
2019-03-10T20:20:14.891Z,4.60
2019-03-10T20:22:41.812Z,4.50
2019-03-10T20:25:11.569Z,4.50
2019-03-10T20:27:38.394Z,4.40
2019-03-10T20:30:16.887Z,4.40
2019-03-10T20:32:43.654Z,4.40
2019-03-10T20:35:10.556Z,4.40
2019-03-10T20:37:37.332Z,4.40
2019-03-10T20:40:16.809Z,4.50
2019-03-10T20:42:43.645Z,4.40
2019-03-10T20:45:10.688Z,4.30
2019-03-10T20:47:37.392Z,4.30
2019-03-10T20:50:14.795Z,4.20
2019-03-10T20:52:41.499Z,4.10
2019-03-10T20:55:10.306Z,4.10
2019-03-10T20:57:37.083Z,4.10
2019-03-10T21:00:17.389Z,4.00
2019-03-10T21:02:44.337Z,4.00
2019-03-10T21:05:11.293Z,4.10
2019-03-10T21:07:38.078Z,4.10
2019-03-10T21:10:13.145Z,4.00
2019-03-10T21:12:42.739Z,3.80
2019-03-10T21:15:17.569Z,3.80
2019-03-10T21:17:44.526Z,3.90
2019-03-10T21:20:15.167Z,3.70
2019-03-10T21:22:41.999Z,3.70
2019-03-10T21:25:15.753Z,3.60
2019-03-10T21:27:42.902Z,3.60
2019-03-10T21:30:14.006Z,3.60
2019-03-10T21:32:40.757Z,3.50
2019-03-10T21:35:17.173Z,3.50
2019-03-10T21:37:36.252Z,3.50
2019-03-10T21:40:11.553Z,3.50
2019-03-10T21:42:38.256Z,3.50
2019-03-10T21:45:07.964Z,3.50
2019-03-10T21:47:34.735Z,3.50
2019-03-10T21:50:01.759Z,3.50
2019-03-10T21:52:28.484Z,3.30
2019-03-10T21:54:55.376Z,3.20
2019-03-10T21:57:22.113Z,3.20
2019-03-10T21:59:48.829Z,3.20
2019-03-10T22:02:15.584Z,3.10
2019-03-10T22:04:42.383Z,3.00
2019-03-10T22:07:09.225Z,3.10
2019-03-10T22:09:35.937Z,3.10
2019-03-10T22:12:02.651Z,3.10
2019-03-10T22:14:29.526Z,3.10
2019-03-10T22:16:56.290Z,3.10
2019-03-10T22:19:23.197Z,3.20
2019-03-10T22:21:50.021Z,3.20
2019-03-10T22:24:16.747Z,3.20
2019-03-10T22:26:43.473Z,3.20
2019-03-10T22:29:10.264Z,3.10
2019-03-10T22:31:36.981Z,3.00
2019-03-10T22:34:03.713Z,3.00
2019-03-10T22:36:30.631Z,3.00
2019-03-10T22:38:57.392Z,2.90
2019-03-10T22:41:24.093Z,2.90
2019-03-10T22:43:50.955Z,2.80
2019-03-10T22:46:17.701Z,2.80
2019-03-10T22:48:44.421Z,2.80
2019-03-10T22:51:11.162Z,2.70
2019-03-10T22:53:37.902Z,2.70
2019-03-10T22:56:04.801Z,2.70
2019-03-10T22:58:31.511Z,2.60
2019-03-10T23:00:58.249Z,2.60
2019-03-10T23:03:25.106Z,2.60
2019-03-10T23:05:51.861Z,2.50
2019-03-10T23:08:18.578Z,2.40
2019-03-10T23:10:45.405Z,2.40
2019-03-10T23:13:12.147Z,2.40
2019-03-10T23:15:38.889Z,2.40
2019-03-10T23:18:05.679Z,2.30
2019-03-10T23:20:32.420Z,2.20
2019-03-10T23:22:59.142Z,2.10
2019-03-10T23:25:25.939Z,2.20
2019-03-10T23:27:52.741Z,2.10
2019-03-10T23:30:19.548Z,2.30
2019-03-10T23:32:46.291Z,2.30
2019-03-10T23:35:13.107Z,2.30
2019-03-10T23:37:40.032Z,2.30
2019-03-10T23:40:13.602Z,2.20
2019-03-10T23:42:40.436Z,2.20
2019-03-10T23:45:14.158Z,2.10
2019-03-10T23:47:40.899Z,2.20
2019-03-10T23:50:16.245Z,2.20
2019-03-10T23:52:42.985Z,2.20
2019-03-10T23:55:11.651Z,2.10
2019-03-10T23:57:38.543Z,2.10
